Time;durP1;ratioP1;P1;durP2;ratioP2;P2;SDS_P1;SDS_P2;PMS_P1;PMS_P2;Temp;Humidity;BMP_temperature;BMP_pressure;BME280_temperature;BME280_humidity;BME280_pressure;Samples;Min_cycle;Max_cycle;Signal;HPM_P1;HPM_P2
2023/01/01 00:00:47;;;;;;;19.17;7.88;;;15.10;99.90;;;;;;4947582;28;20063;-76
2023/01/01 00:03:13;;;;;;;14.40;6.65;;;15.20;99.90;;;;;;4947226;28;20047;-74
2023/01/01 00:05:40;;;;;;;16.63;7.15;;;15.20;99.90;;;;;;4915781;29;20110;-71
2023/01/01 00:08:06;;;;;;;19.95;7.75;;;15.50;99.90;;;;;;4927508;29;20188;-70
2023/01/01 00:10:32;;;;;;;14.90;5.38;;;15.20;99.90;;;;;;4942210;28;20126;-69
2023/01/01 00:12:58;;;;;;;13.77;5.90;;;15.20;99.90;;;;;;4947859;28;20122;-71
2023/01/01 00:15:24;;;;;;;13.27;5.78;;;15.10;99.90;;;;;;4927837;29;20130;-71
2023/01/01 00:17:50;;;;;;;12.15;4.65;;;15.10;99.90;;;;;;4945573;29;20133;-70
2023/01/01 00:20:16;;;;;;;14.18;6.03;;;15.10;99.90;;;;;;4946457;29;20102;-70
2023/01/01 00:22:43;;;;;;;12.07;4.45;;;15.10;99.90;;;;;;4874505;28;20067;-69
2023/01/01 00:25:09;;;;;;;12.57;5.00;;;15.10;99.90;;;;;;4930947;28;20043;-70
2023/01/01 00:27:35;;;;;;;12.63;4.45;;;15.10;99.90;;;;;;4947183;29;20039;-69
2023/01/01 00:30:01;;;;;;;10.48;4.00;;;15.20;99.90;;;;;;4928084;29;20236;-72
2023/01/01 00:32:28;;;;;;;13.98;4.15;;;15.20;99.90;;;;;;4965080;28;20149;-71
2023/01/01 00:34:54;;;;;;;16.38;4.35;;;15.30;99.90;;;;;;4949752;28;20154;-70
2023/01/01 00:37:20;;;;;;;12.65;4.15;;;15.20;99.90;;;;;;4934749;28;20119;-69
2023/01/01 00:39:46;;;;;;;10.15;3.50;;;15.20;99.90;;;;;;4951838;28;20049;-69
2023/01/01 00:42:11;;;;;;;14.60;4.03;;;15.30;99.90;;;;;;4951873;29;20050;-69
2023/01/01 00:44:37;;;;;;;10.40;4.03;;;15.30;99.90;;;;;;4966159;28;20047;-70
2023/01/01 00:47:03;;;;;;;11.60;3.90;;;15.40;99.90;;;;;;4908121;28;20841;-74
2023/01/01 00:49:29;;;;;;;11.57;3.78;;;15.30;99.90;;;;;;4943732;28;20470;-69
2023/01/01 00:51:54;;;;;;;12.23;4.43;;;15.30;99.90;;;;;;4951084;28;20044;-66
2023/01/01 00:54:20;;;;;;;10.95;3.80;;;15.40;99.70;;;;;;4949853;28;20043;-69
2023/01/01 00:56:46;;;;;;;10.00;4.25;;;15.40;99.90;;;;;;4950848;28;20698;-68
2023/01/01 00:59:11;;;;;;;11.65;4.57;;;15.40;99.80;;;;;;4966586;28;20043;-69
2023/01/01 01:01:39;;;;;;;15.73;3.53;;;15.40;99.40;;;;;;4949547;29;20520;-69
2023/01/01 01:04:05;;;;;;;11.60;3.50;;;15.40;99.30;;;;;;4950225;28;20051;-68
2023/01/01 01:06:32;;;;;;;14.13;3.72;;;15.40;99.40;;;;;;4949597;28;20049;-67
2023/01/01 01:08:58;;;;;;;12.30;3.50;;;15.40;99.30;;;;;;4949691;28;20047;-68
2023/01/01 01:11:27;;;;;;;10.60;3.00;;;15.40;99.20;;;;;;4949750;28;20367;-69
2023/01/01 01:13:55;;;;;;;10.40;3.58;;;15.50;98.90;;;;;;4934506;29;20074;-71
2023/01/01 01:16:31;;;;;;;8.60;3.20;;;15.60;98.60;;;;;;4950406;29;20055;-69
2023/01/01 01:18:59;;;;;;;9.43;3.50;;;15.50;98.80;;;;;;4933495;29;20179;-69
2023/01/01 01:21:25;;;;;;;7.78;3.17;;;15.50;98.50;;;;;;4934368;29;20051;-72
2023/01/01 01:23:51;;;;;;;8.57;3.63;;;15.50;98.60;;;;;;4933685;28;20047;-70
2023/01/01 01:26:19;;;;;;;8.93;3.85;;;15.50;98.60;;;;;;4949618;28;20055;-72
2023/01/01 01:28:44;;;;;;;12.68;3.90;;;15.50;98.60;;;;;;4931363;29;20059;-68
2023/01/01 01:31:10;;;;;;;9.35;3.92;;;15.50;98.70;;;;;;4950979;28;20488;-74
2023/01/01 01:33:36;;;;;;;8.43;3.85;;;15.60;98.40;;;;;;4934023;29;20139;-69
2023/01/01 01:36:03;;;;;;;8.05;3.20;;;15.50;98.50;;;;;;4930295;29;20138;-69
2023/01/01 01:38:29;;;;;;;12.93;3.53;;;15.50;98.10;;;;;;4964597;28;20043;-70
2023/01/01 01:40:54;;;;;;;10.60;4.03;;;15.50;98.20;;;;;;4933196;28;20047;-68
2023/01/01 01:43:25;;;;;;;12.93;3.65;;;15.50;98.10;;;;;;4947577;28;20055;-71
2023/01/01 01:45:55;;;;;;;15.95;3.28;;;15.50;98.10;;;;;;4933508;28;20572;-67
2023/01/01 01:48:21;;;;;;;8.73;2.55;;;15.60;97.90;;;;;;4949429;28;20043;-68
2023/01/01 01:50:47;;;;;;;10.32;3.50;;;15.60;98.00;;;;;;4946180;28;20043;-69
2023/01/01 01:53:22;;;;;;;16.48;3.83;;;15.50;98.00;;;;;;4917240;29;20053;-69
2023/01/01 01:56:12;;;;;;;14.35;3.13;;;15.50;98.30;;;;;;4948923;29;20079;-68
2023/01/01 01:58:38;;;;;;;12.98;3.20;;;15.40;98.50;;;;;;4948808;28;20051;-68
2023/01/01 02:01:04;;;;;;;7.53;2.80;;;15.40;98.30;;;;;;4948335;29;20489;-68
2023/01/01 02:03:50;;;;;;;9.57;3.25;;;15.40;98.30;;;;;;4932857;28;20512;-64
2023/01/01 02:06:17;;;;;;;9.85;3.10;;;15.30;98.80;;;;;;4964863;28;20142;-67
2023/01/01 02:08:43;;;;;;;9.60;3.13;;;15.30;98.80;;;;;;4948988;29;20118;-67
2023/01/01 02:11:08;;;;;;;12.50;4.30;;;15.20;99.00;;;;;;4947124;28;20151;-67
2023/01/01 02:13:34;;;;;;;8.55;2.95;;;15.20;99.00;;;;;;4932652;29;20074;-67
2023/01/01 02:16:19;;;;;;;9.10;3.40;;;15.20;99.10;;;;;;4932918;29;20066;-70
2023/01/01 02:19:06;;;;;;;8.18;3.70;;;15.20;99.00;;;;;;4947337;29;20938;-66
2023/01/01 02:21:38;;;;;;;11.57;3.60;;;15.20;98.90;;;;;;4946942;28;20481;-64
2023/01/01 02:24:33;;;;;;;12.30;3.90;;;15.30;98.50;;;;;;4933410;29;20473;-66
2023/01/01 02:27:03;;;;;;;12.20;3.95;;;15.30;98.40;;;;;;4964706;28;20281;-64
2023/01/01 02:29:39;;;;;;;11.13;4.05;;;15.30;98.50;;;;;;4932408;29;20043;-70
2023/01/01 02:32:14;;;;;;;13.70;3.97;;;15.30;98.50;;;;;;4948062;29;20102;-66
2023/01/01 02:35:33;;;;;;;12.05;4.28;;;15.20;98.60;;;;;;4949047;29;20047;-66
2023/01/01 02:37:52;;;;;;;13.98;5.15;;;15.20;98.60;;;;;;4937595;28;20077;-64
2023/01/01 02:40:17;;;;;;;14.43;4.70;;;15.30;98.10;;;;;;4948433;29;20071;-67
2023/01/01 02:42:43;;;;;;;12.82;4.78;;;15.30;98.20;;;;;;4930446;29;20051;-68
2023/01/01 02:45:09;;;;;;;15.95;5.35;;;15.20;98.50;;;;;;4948319;28;20564;-67
2023/01/01 02:47:35;;;;;;;14.07;4.63;;;15.20;98.60;;;;;;4948293;29;20394;-67
2023/01/01 02:50:11;;;;;;;16.48;4.88;;;15.20;98.30;;;;;;4930078;29;20122;-68
2023/01/01 02:52:56;;;;;;;12.88;4.93;;;15.20;98.40;;;;;;4928348;28;20441;-64
2023/01/01 02:55:31;;;;;;;18.33;4.53;;;15.20;98.20;;;;;;4947681;29;20599;-69
2023/01/01 03:01:26;;;;;;;18.17;4.93;;;15.20;98.20;;;;;;4947158;28;20114;-67
2023/01/01 03:03:58;;;;;;;14.05;4.45;;;15.10;98.30;;;;;;4943123;29;20054;-67
2023/01/01 03:06:33;;;;;;;13.45;3.92;;;15.20;98.20;;;;;;4944394;28;20043;-68
2023/01/01 03:09:37;;;;;;;13.15;4.25;;;15.10;98.30;;;;;;4931901;29;20126;-68
2023/01/01 03:12:06;;;;;;;8.45;4.30;;;15.20;97.60;;;;;;4971639;28;20066;-66
2023/01/01 03:14:56;;;;;;;13.73;4.18;;;15.20;97.70;;;;;;4949352;28;20098;-67
2023/01/01 03:17:36;;;;;;;15.95;3.78;;;15.20;97.50;;;;;;4943253;28;20545;-67
2023/01/01 03:20:06;;;;;;;13.48;3.83;;;15.20;97.50;;;;;;4930628;29;20492;-66
2023/01/01 03:22:33;;;;;;;12.98;4.63;;;15.10;97.60;;;;;;4943996;29;20066;-67
2023/01/01 03:25:03;;;;;;;8.02;3.53;;;15.10;97.30;;;;;;4930581;28;20058;-68
2023/01/01 03:27:50;;;;;;;11.93;4.32;;;15.10;97.40;;;;;;4931149;29;20047;-66
2023/01/01 03:30:16;;;;;;;13.93;3.95;;;15.10;97.70;;;;;;4962001;28;20770;-69
2023/01/01 03:33:07;;;;;;;10.60;3.90;;;15.00;97.90;;;;;;4947051;29;20109;-68
2023/01/01 03:35:48;;;;;;;9.10;3.53;;;14.90;97.90;;;;;;4947195;28;20106;-68
2023/01/01 03:38:23;;;;;;;12.52;4.07;;;14.90;97.70;;;;;;4976988;28;20051;-68
2023/01/01 03:40:50;;;;;;;12.70;3.58;;;15.00;97.50;;;;;;4931683;29;20134;-68
2023/01/01 03:43:39;;;;;;;11.18;4.13;;;14.90;97.40;;;;;;4929689;29;20055;-67
2023/01/01 03:46:05;;;;;;;19.98;4.68;;;15.00;97.30;;;;;;4917684;29;20223;-68
2023/01/01 03:48:54;;;;;;;8.88;3.70;;;14.90;97.40;;;;;;4931356;29;20473;-68
2023/01/01 03:51:28;;;;;;;11.98;3.60;;;14.90;96.80;;;;;;4965552;28;20070;-67
2023/01/01 03:53:55;;;;;;;14.73;3.53;;;14.90;96.60;;;;;;4947630;28;20573;-67
2023/01/01 03:56:44;;;;;;;11.10;3.85;;;14.90;96.90;;;;;;4946699;28;20051;-68
2023/01/01 03:59:45;;;;;;;9.60;4.00;;;14.90;96.70;;;;;;4945722;28;20047;-68
2023/01/01 04:02:12;;;;;;;8.95;3.30;;;14.90;96.50;;;;;;4941259;29;20731;-69
2023/01/01 04:04:37;;;;;;;9.13;3.03;;;14.90;96.60;;;;;;4958834;28;20047;-69
2023/01/01 04:07:03;;;;;;;9.18;3.55;;;14.80;96.70;;;;;;4943830;28;20069;-69
2023/01/01 04:09:30;;;;;;;10.50;4.28;;;14.70;96.80;;;;;;4930116;29;20101;-69
2023/01/01 04:12:03;;;;;;;9.45;3.25;;;14.80;96.50;;;;;;4945936;28;20048;-69
2023/01/01 04:14:38;;;;;;;9.52;3.75;;;14.80;96.30;;;;;;4945599;28;20043;-68
2023/01/01 04:17:04;;;;;;;8.30;3.05;;;14.80;95.80;;;;;;4946514;28;20047;-69
2023/01/01 04:19:30;;;;;;;8.20;3.55;;;14.80;96.10;;;;;;4930897;29;20070;-69
2023/01/01 04:21:56;;;;;;;11.43;3.45;;;14.70;96.00;;;;;;4930082;29;20047;-68
2023/01/01 04:24:22;;;;;;;11.43;3.67;;;14.70;96.30;;;;;;4926516;29;20400;-68
2023/01/01 04:26:50;;;;;;;9.05;3.92;;;14.70;96.40;;;;;;4944170;29;20054;-70
2023/01/01 04:29:16;;;;;;;9.65;3.83;;;14.60;96.40;;;;;;4932661;29;20047;-68
2023/01/01 04:31:42;;;;;;;8.90;3.30;;;14.60;96.40;;;;;;4946288;28;20255;-68
2023/01/01 04:34:08;;;;;;;8.38;3.80;;;14.60;96.30;;;;;;4959000;28;20465;-68
2023/01/01 04:36:37;;;;;;;7.95;3.60;;;14.60;96.20;;;;;;4963705;28;20501;-68
2023/01/01 04:39:03;;;;;;;11.05;3.65;;;14.60;96.40;;;;;;4964023;28;20058;-67
2023/01/01 04:41:29;;;;;;;14.15;3.80;;;14.50;96.50;;;;;;4947646;29;20043;-68
2023/01/01 04:43:54;;;;;;;11.43;3.75;;;14.60;96.30;;;;;;4931394;29;20054;-69
2023/01/01 04:46:20;;;;;;;10.95;3.70;;;14.60;96.30;;;;;;4946871;29;20050;-68
2023/01/01 04:48:46;;;;;;;11.98;4.43;;;14.60;96.20;;;;;;4929723;29;20070;-69
2023/01/01 04:51:13;;;;;;;11.50;3.55;;;14.60;96.00;;;;;;4930397;29;20342;-70
2023/01/01 04:53:39;;;;;;;12.77;4.15;;;14.50;96.20;;;;;;4929068;29;20055;-70
2023/01/01 04:56:09;;;;;;;11.27;3.97;;;14.50;96.40;;;;;;4930434;29;20527;-70
2023/01/01 04:58:37;;;;;;;8.35;3.60;;;14.40;96.50;;;;;;4945597;28;20509;-69
2023/01/01 05:01:03;;;;;;;7.55;3.83;;;14.50;96.40;;;;;;4946400;28;20063;-69
2023/01/01 05:03:29;;;;;;;9.55;5.18;;;14.40;96.50;;;;;;4945215;28;20047;-68
2023/01/01 05:06:02;;;;;;;11.02;4.35;;;14.40;96.30;;;;;;4946437;28;20090;-69
2023/01/01 05:08:29;;;;;;;10.85;4.07;;;14.40;96.50;;;;;;4930533;29;20496;-69
2023/01/01 05:11:20;;;;;;;10.02;4.47;;;14.40;96.30;;;;;;4929267;28;20051;-69
2023/01/01 05:13:48;;;;;;;12.82;3.95;;;14.40;96.20;;;;;;4946574;29;20062;-69
2023/01/01 05:16:15;;;;;;;8.93;4.45;;;14.40;96.50;;;;;;4941791;28;20440;-69
2023/01/01 05:18:42;;;;;;;9.53;4.07;;;14.40;96.30;;;;;;4949448;28;20047;-69
2023/01/01 05:21:20;;;;;;;8.30;4.15;;;14.40;96.20;;;;;;4949975;28;20579;-68
2023/01/01 05:23:46;;;;;;;8.00;3.92;;;14.40;96.50;;;;;;4930489;29;20385;-70
2023/01/01 05:26:16;;;;;;;8.90;4.45;;;14.40;96.50;;;;;;4948507;28;20053;-71
2023/01/01 05:28:42;;;;;;;8.35;4.43;;;14.30;96.50;;;;;;4933441;29;20043;-68
2023/01/01 05:31:12;;;;;;;8.05;4.18;;;14.30;96.70;;;;;;4933095;29;20045;-68
2023/01/01 05:33:38;;;;;;;12.90;4.43;;;14.30;96.70;;;;;;4963795;28;20058;-68
2023/01/01 05:36:11;;;;;;;8.32;4.45;;;14.30;96.60;;;;;;4949048;28;20058;-69
2023/01/01 05:38:36;;;;;;;9.32;4.65;;;14.20;96.90;;;;;;4935343;28;20142;-68
2023/01/01 05:41:06;;;;;;;8.05;4.18;;;14.30;96.70;;;;;;4948841;28;20130;-69
2023/01/01 05:43:35;;;;;;;11.13;5.22;;;14.30;96.70;;;;;;4931375;28;20051;-69
2023/01/01 05:46:02;;;;;;;9.50;5.28;;;14.30;96.60;;;;;;4965357;28;20050;-69
2023/01/01 05:48:27;;;;;;;11.18;4.95;;;14.30;96.70;;;;;;4916984;29;20038;-69
2023/01/01 05:50:53;;;;;;;11.88;4.68;;;14.30;96.90;;;;;;4931414;29;20047;-68
2023/01/01 05:53:19;;;;;;;9.70;4.43;;;14.30;96.80;;;;;;4934850;28;20065;-69
2023/01/01 05:55:51;;;;;;;10.85;4.78;;;14.30;96.70;;;;;;4948544;28;20681;-68
2023/01/01 05:58:17;;;;;;;9.15;4.72;;;14.30;96.80;;;;;;4949191;28;20047;-68
2023/01/01 06:00:43;;;;;;;8.32;4.25;;;14.30;97.00;;;;;;4932139;28;20350;-68
2023/01/01 06:03:08;;;;;;;9.88;4.65;;;14.30;96.90;;;;;;4930366;29;20083;-69
2023/01/01 06:05:34;;;;;;;9.88;4.88;;;14.30;97.00;;;;;;4949959;29;20217;-69
2023/01/01 06:08:00;;;;;;;11.73;4.75;;;14.30;97.20;;;;;;4965172;28;20081;-67
2023/01/01 06:10:26;;;;;;;13.25;5.25;;;14.20;97.20;;;;;;4948195;29;20121;-68
2023/01/01 06:12:55;;;;;;;7.80;4.50;;;14.30;97.00;;;;;;4948684;28;20046;-70
2023/01/01 06:15:20;;;;;;;11.25;4.45;;;14.30;97.40;;;;;;4949258;29;20078;-68
2023/01/01 06:17:46;;;;;;;15.15;5.00;;;14.30;97.30;;;;;;4948906;28;20118;-69
2023/01/01 06:20:12;;;;;;;8.98;4.75;;;14.20;97.60;;;;;;4948123;28;20114;-68
2023/01/01 06:22:37;;;;;;;8.95;5.00;;;14.20;97.60;;;;;;4948789;29;20051;-69
2023/01/01 06:25:03;;;;;;;11.38;5.28;;;14.30;97.70;;;;;;4964419;28;20047;-69
2023/01/01 06:27:29;;;;;;;9.80;5.07;;;14.20;97.50;;;;;;4948144;28;20043;-70
2023/01/01 06:29:56;;;;;;;10.30;4.65;;;14.30;97.50;;;;;;4932103;28;20058;-68
2023/01/01 06:32:22;;;;;;;14.68;4.70;;;14.30;97.30;;;;;;4948428;29;20050;-69
2023/01/01 06:34:48;;;;;;;9.43;4.63;;;14.30;97.50;;;;;;4931804;29;20058;-71
2023/01/01 06:37:13;;;;;;;11.27;5.15;;;14.30;97.50;;;;;;4946117;28;20054;-68
2023/01/01 06:39:39;;;;;;;8.23;4.80;;;14.30;97.60;;;;;;4947723;29;20464;-69
2023/01/01 06:42:05;;;;;;;8.80;4.90;;;14.30;97.70;;;;;;4949921;28;20109;-68
2023/01/01 06:44:31;;;;;;;9.55;4.65;;;14.30;97.60;;;;;;4964312;28;20670;-69
2023/01/01 06:46:56;;;;;;;9.68;4.65;;;14.20;97.90;;;;;;4948901;28;20062;-69
2023/01/01 06:49:22;;;;;;;8.55;5.10;;;14.20;98.00;;;;;;4932644;29;20119;-69
2023/01/01 06:51:48;;;;;;;11.60;4.82;;;14.20;98.10;;;;;;4948142;29;20118;-68
2023/01/01 06:54:14;;;;;;;13.40;5.68;;;14.20;98.30;;;;;;4932020;28;20134;-68
2023/01/01 06:56:39;;;;;;;13.35;5.43;;;14.20;98.20;;;;;;4947671;29;20043;-67
2023/01/01 06:59:05;;;;;;;8.70;4.72;;;14.20;98.40;;;;;;4931829;29;20047;-70
2023/01/01 07:01:32;;;;;;;10.65;6.05;;;14.10;98.70;;;;;;4931311;28;20090;-69
2023/01/01 07:03:59;;;;;;;10.93;5.03;;;14.10;98.90;;;;;;4947330;29;20055;-68
2023/01/01 07:06:25;;;;;;;9.70;4.30;;;14.10;99.10;;;;;;4930726;29;20500;-70
2023/01/01 07:08:51;;;;;;;10.30;5.18;;;14.10;99.00;;;;;;4944145;29;20541;-70
2023/01/01 07:11:17;;;;;;;13.73;5.40;;;14.10;99.00;;;;;;4946855;28;20138;-68
2023/01/01 07:13:42;;;;;;;10.23;4.85;;;14.20;99.20;;;;;;4947829;28;20642;-67
2023/01/01 07:16:11;;;;;;;10.23;5.45;;;14.10;99.30;;;;;;4946231;28;20102;-68
2023/01/01 07:18:40;;;;;;;10.15;5.05;;;14.10;99.20;;;;;;4931992;29;20138;-68
2023/01/01 07:21:06;;;;;;;9.05;4.75;;;14.10;99.50;;;;;;4948016;28;20469;-70
2023/01/01 07:23:33;;;;;;;10.55;5.25;;;14.10;99.60;;;;;;4930873;29;20053;-69
2023/01/01 07:25:59;;;;;;;12.65;6.13;;;14.10;99.80;;;;;;4931370;29;20059;-68
2023/01/01 07:28:25;;;;;;;8.55;4.97;;;14.10;99.90;;;;;;4947480;28;20051;-68
2023/01/01 07:30:52;;;;;;;10.75;4.68;;;14.20;99.80;;;;;;4930953;29;20057;-67
2023/01/01 07:33:19;;;;;;;12.95;5.82;;;14.20;99.90;;;;;;4947628;28;20185;-70
2023/01/01 07:35:45;;;;;;;19.02;5.32;;;14.20;99.90;;;;;;4931267;29;20145;-70
2023/01/01 07:38:11;;;;;;;9.27;5.00;;;14.20;99.90;;;;;;4933754;29;20746;-69
2023/01/01 07:40:37;;;;;;;10.93;5.03;;;14.20;99.90;;;;;;4930739;29;20052;-68
2023/01/01 07:43:03;;;;;;;10.27;4.47;;;14.20;99.90;;;;;;4967059;28;20473;-68
2023/01/01 07:45:29;;;;;;;10.65;4.75;;;14.20;99.90;;;;;;4950259;29;20047;-69
2023/01/01 07:47:58;;;;;;;12.77;4.85;;;14.20;99.90;;;;;;4940847;28;20454;-69
2023/01/01 07:50:25;;;;;;;9.00;5.30;;;14.20;99.90;;;;;;4950280;28;20051;-69
2023/01/01 07:52:51;;;;;;;10.68;5.00;;;14.20;99.90;;;;;;4951987;28;20051;-68
2023/01/01 07:55:17;;;;;;;10.57;4.70;;;14.20;99.90;;;;;;4986775;28;20121;-68
2023/01/01 07:57:43;;;;;;;9.50;4.90;;;14.20;99.90;;;;;;4934694;28;20054;-68
2023/01/01 08:00:13;;;;;;;10.95;5.05;;;14.20;99.90;;;;;;4948393;28;20059;-69
2023/01/01 08:02:39;;;;;;;10.07;5.88;;;14.20;99.90;;;;;;4949047;28;20050;-67
2023/01/01 08:05:05;;;;;;;9.05;4.60;;;14.20;99.90;;;;;;4933493;29;20492;-67
2023/01/01 08:07:31;;;;;;;12.30;5.05;;;14.20;99.90;;;;;;4918460;29;20050;-67
2023/01/01 08:09:56;;;;;;;18.00;6.32;;;14.20;99.90;;;;;;4933158;28;20074;-65
2023/01/01 08:12:22;;;;;;;9.82;5.35;;;14.20;99.90;;;;;;4933892;29;20047;-67
2023/01/01 08:14:48;;;;;;;10.50;4.93;;;14.20;99.90;;;;;;4950250;28;20138;-69
2023/01/01 08:17:14;;;;;;;11.98;6.03;;;14.20;99.90;;;;;;4981775;28;20047;-68
2023/01/01 08:19:40;;;;;;;11.20;5.20;;;14.20;99.90;;;;;;4946087;28;20067;-68
2023/01/01 08:22:05;;;;;;;11.15;5.30;;;14.20;99.90;;;;;;4962648;28;20047;-68
2023/01/01 08:24:31;;;;;;;10.10;4.97;;;14.20;99.90;;;;;;4935374;28;20051;-67
2023/01/01 08:26:57;;;;;;;12.57;5.88;;;14.20;99.90;;;;;;4951747;28;20055;-69
2023/01/01 08:29:26;;;;;;;8.23;5.15;;;14.20;99.90;;;;;;4936599;29;20111;-66
2023/01/01 08:31:51;;;;;;;15.77;5.53;;;14.20;99.90;;;;;;4951405;29;20043;-68
2023/01/01 08:34:20;;;;;;;9.70;5.07;;;14.10;99.90;;;;;;4935665;29;20105;-68
2023/01/01 08:36:46;;;;;;;8.27;4.50;;;14.20;99.90;;;;;;4934481;29;20051;-69
2023/01/01 08:39:12;;;;;;;11.48;6.20;;;14.20;99.90;;;;;;4935095;29;20117;-69
2023/01/01 08:41:40;;;;;;;11.73;5.72;;;14.20;99.90;;;;;;4934398;28;20047;-70
2023/01/01 08:44:06;;;;;;;12.27;5.32;;;14.20;99.90;;;;;;4950479;29;20513;-70
2023/01/01 08:46:32;;;;;;;12.38;6.00;;;14.20;99.90;;;;;;4950680;28;20070;-68
2023/01/01 08:48:57;;;;;;;9.35;5.13;;;14.20;99.90;;;;;;4949895;28;20059;-66
2023/01/01 08:51:23;;;;;;;10.45;5.03;;;14.30;99.90;;;;;;4951481;28;20602;-67
2023/01/01 08:53:49;;;;;;;9.38;5.45;;;14.30;99.90;;;;;;4954644;28;20055;-66
2023/01/01 08:56:15;;;;;;;12.40;4.60;;;14.30;99.90;;;;;;4935374;29;20043;-67
2023/01/01 08:58:41;;;;;;;10.52;4.85;;;14.30;99.90;;;;;;4954016;28;20121;-71
2023/01/01 09:01:09;;;;;;;11.20;4.80;;;14.20;99.90;;;;;;4952858;28;20067;-71
2023/01/01 09:03:35;;;;;;;10.38;4.88;;;14.20;99.90;;;;;;4952449;29;20062;-71
2023/01/01 09:06:01;;;;;;;10.77;5.03;;;14.20;99.90;;;;;;4953369;29;20047;-70
2023/01/01 09:08:30;;;;;;;8.35;4.10;;;14.20;99.90;;;;;;4952563;29;20090;-71
2023/01/01 09:10:59;;;;;;;8.68;4.65;;;14.20;99.90;;;;;;4936667;29;20055;-70
2023/01/01 09:13:25;;;;;;;7.75;4.40;;;14.20;99.90;;;;;;4951564;28;20055;-72
2023/01/01 09:15:51;;;;;;;10.23;5.43;;;14.20;99.90;;;;;;4932346;29;20393;-72
2023/01/01 09:18:17;;;;;;;11.57;5.20;;;14.20;99.90;;;;;;4948197;29;20043;-70
2023/01/01 09:20:43;;;;;;;8.05;4.72;;;14.30;99.90;;;;;;4932421;29;20051;-72
2023/01/01 09:23:09;;;;;;;6.45;3.83;;;14.30;99.90;;;;;;4952157;28;20051;-71
2023/01/01 09:25:35;;;;;;;9.43;4.80;;;14.30;99.90;;;;;;4933867;29;20486;-71
2023/01/01 09:28:06;;;;;;;11.80;4.82;;;14.20;99.90;;;;;;4951724;28;20151;-71
2023/01/01 09:30:32;;;;;;;8.18;4.05;;;14.30;99.90;;;;;;4937224;29;20053;-71
2023/01/01 09:32:58;;;;;;;8.15;4.10;;;14.30;99.90;;;;;;4932538;29;20116;-71
2023/01/01 09:35:23;;;;;;;9.00;4.53;;;14.30;99.90;;;;;;4953567;29;20101;-70
2023/01/01 09:37:49;;;;;;;10.93;4.78;;;14.30;99.90;;;;;;4951421;28;20118;-72
2023/01/01 09:40:50;;;;;;;8.25;4.00;;;14.30;99.90;;;;;;4952072;29;20358;-69
2023/01/01 09:43:39;;;;;;;7.70;3.58;;;14.30;99.90;;;;;;4939027;29;20051;-70
2023/01/01 09:46:06;;;;;;;7.28;4.18;;;14.30;99.90;;;;;;4962424;28;20098;-71
2023/01/01 09:48:32;;;;;;;7.38;4.22;;;14.30;99.90;;;;;;4936246;29;20106;-71
2023/01/01 09:51:14;;;;;;;9.25;4.43;;;14.30;99.90;;;;;;4951438;29;20109;-72
2023/01/01 09:53:58;;;;;;;8.68;4.00;;;14.30;99.90;;;;;;4936794;29;20126;-71
2023/01/01 09:56:28;;;;;;;8.52;4.30;;;14.40;99.90;;;;;;4954325;28;20055;-71
2023/01/01 09:59:00;;;;;;;10.35;4.35;;;14.30;99.90;;;;;;4936105;29;20090;-71
2023/01/01 10:01:44;;;;;;;8.52;4.30;;;14.40;99.90;;;;;;4936690;29;20086;-70
2023/01/01 10:04:45;;;;;;;7.05;3.63;;;14.40;99.90;;;;;;4946097;29;20289;-71
2023/01/01 10:07:33;;;;;;;7.18;3.85;;;14.40;99.90;;;;;;4952244;29;20521;-71
2023/01/01 10:10:27;;;;;;;8.65;3.60;;;14.40;99.90;;;;;;4948836;28;20055;-72
2023/01/01 10:12:58;;;;;;;6.28;3.70;;;14.40;99.90;;;;;;4952753;29;20047;-71
2023/01/01 10:15:26;;;;;;;7.70;3.78;;;14.40;99.90;;;;;;4950679;29;20142;-71
2023/01/01 10:17:58;;;;;;;10.15;4.13;;;14.40;99.90;;;;;;4948900;29;20098;-72
2023/01/01 10:20:43;;;;;;;8.15;3.60;;;14.50;99.90;;;;;;4951034;29;20537;-72
2023/01/01 10:23:14;;;;;;;10.45;3.65;;;14.50;99.90;;;;;;4983180;28;20047;-71
2023/01/01 10:25:40;;;;;;;7.50;3.17;;;14.50;99.90;;;;;;4966773;28;20043;-71
2023/01/01 10:28:31;;;;;;;9.00;3.38;;;14.50;99.90;;;;;;4935960;29;20054;-72
2023/01/01 10:31:14;;;;;;;7.90;3.63;;;14.50;99.90;;;;;;4936668;29;20054;-72
2023/01/01 10:33:39;;;;;;;6.65;2.92;;;14.50;99.90;;;;;;4937451;28;20741;-70
2023/01/01 10:36:06;;;;;;;7.43;3.30;;;14.50;99.90;;;;;;4935899;29;20102;-70
2023/01/01 10:38:32;;;;;;;9.00;3.05;;;14.50;99.90;;;;;;4935658;29;20051;-65
2023/01/01 10:41:02;;;;;;;8.60;3.33;;;14.60;99.90;;;;;;4935021;29;20394;-72
2023/01/01 10:43:28;;;;;;;7.15;2.80;;;14.50;99.90;;;;;;4919387;29;20500;-72
2023/01/01 10:45:54;;;;;;;7.05;2.83;;;14.50;99.90;;;;;;4951407;28;20101;-72
2023/01/01 10:48:21;;;;;;;6.57;2.75;;;14.50;99.90;;;;;;4951236;28;20458;-72
2023/01/01 10:51:15;;;;;;;9.32;3.30;;;14.50;99.90;;;;;;4951165;29;20047;-71
2023/01/01 10:53:49;;;;;;;6.43;2.80;;;14.50;99.90;;;;;;4983037;28;20050;-71
2023/01/01 10:56:19;;;;;;;5.13;2.80;;;14.50;99.90;;;;;;4935942;29;20052;-72
2023/01/01 10:58:55;;;;;;;5.40;2.70;;;14.50;99.90;;;;;;4968169;28;20062;-71
2023/01/01 11:01:22;;;;;;;8.35;3.40;;;14.50;99.90;;;;;;4936623;29;20493;-72
2023/01/01 11:04:07;;;;;;;7.28;2.90;;;14.50;99.90;;;;;;4945701;29;20134;-72
2023/01/01 11:06:38;;;;;;;8.02;2.90;;;14.40;99.90;;;;;;4949787;28;20043;-68
2023/01/01 11:09:22;;;;;;;6.63;2.65;;;14.40;99.90;;;;;;4951889;28;20047;-68
2023/01/01 11:12:00;;;;;;;6.28;2.20;;;14.30;99.90;;;;;;4948828;29;20047;-68
2023/01/01 11:14:26;;;;;;;6.85;2.13;;;14.30;99.90;;;;;;4951166;28;20062;-71
2023/01/01 11:16:52;;;;;;;5.10;2.28;;;14.20;99.90;;;;;;4967066;28;20101;-68
2023/01/01 11:19:27;;;;;;;6.75;2.00;;;14.10;99.90;;;;;;4934486;29;20055;-67
2023/01/01 11:21:52;;;;;;;6.88;1.85;;;14.00;99.90;;;;;;4950748;29;20377;-64
2023/01/01 11:24:20;;;;;;;6.63;1.90;;;14.00;99.90;;;;;;4933875;29;20054;-65
2023/01/01 11:26:47;;;;;;;6.68;1.73;;;13.90;99.90;;;;;;4935091;29;20047;-64
2023/01/01 11:29:15;;;;;;;6.88;2.20;;;13.90;99.90;;;;;;4949610;28;20648;-65
2023/01/01 11:31:43;;;;;;;6.47;1.77;;;13.80;99.90;;;;;;4951202;28;20450;-65
2023/01/01 11:34:21;;;;;;;5.82;2.28;;;13.70;99.90;;;;;;4951062;28;20120;-63
2023/01/01 11:36:46;;;;;;;7.43;1.77;;;13.60;99.90;;;;;;4949827;28;20055;-65
2023/01/01 11:39:25;;;;;;;5.43;1.70;;;13.60;99.90;;;;;;4949823;29;20386;-64
2023/01/01 11:41:52;;;;;;;4.20;1.90;;;13.50;99.90;;;;;;4948687;28;20118;-64
2023/01/01 11:44:29;;;;;;;5.53;1.58;;;13.50;99.90;;;;;;4949460;29;20401;-64
2023/01/01 11:46:55;;;;;;;4.40;1.60;;;13.50;99.90;;;;;;4944786;28;20422;-65
2023/01/01 11:49:23;;;;;;;6.03;1.67;;;13.50;99.90;;;;;;4947835;29;20061;-65
2023/01/01 11:51:49;;;;;;;7.85;2.03;;;13.30;99.90;;;;;;4933244;28;20047;-65
2023/01/01 11:54:34;;;;;;;9.40;2.00;;;13.30;99.90;;;;;;4934029;29;20055;-65
2023/01/01 11:57:06;;;;;;;5.47;1.77;;;13.30;99.90;;;;;;4950037;29;20057;-64
2023/01/01 11:59:48;;;;;;;10.02;2.40;;;13.30;99.90;;;;;;4965320;28;20051;-66
2023/01/01 12:02:23;;;;;;;6.55;2.50;;;13.20;99.90;;;;;;4951270;28;20062;-65
2023/01/01 12:04:54;;;;;;;7.97;1.98;;;13.20;99.90;;;;;;4934726;29;20051;-65
2023/01/01 12:07:29;;;;;;;7.85;1.88;;;13.10;99.90;;;;;;4918726;29;20701;-65
2023/01/01 12:10:19;;;;;;;15.60;11.73;;;13.00;99.90;;;;;;4949859;29;20055;-65
2023/01/01 12:13:03;;;;;;;19.27;13.07;;;13.00;99.90;;;;;;4963984;28;20347;-66
2023/01/01 12:16:06;;;;;;;12.63;7.28;;;13.00;99.90;;;;;;4933806;29;20082;-64
2023/01/01 12:19:01;;;;;;;10.75;6.28;;;12.90;99.90;;;;;;4937421;29;20074;-65
2023/01/01 12:21:27;;;;;;;9.02;3.30;;;12.90;99.90;;;;;;4949607;29;20062;-64
2023/01/01 12:23:54;;;;;;;11.75;5.47;;;12.80;99.90;;;;;;4950221;28;20071;-65
2023/01/01 12:26:28;;;;;;;11.10;6.00;;;12.90;99.90;;;;;;4950174;28;20043;-64
2023/01/01 12:29:12;;;;;;;14.15;8.93;;;13.00;99.90;;;;;;4945097;28;20058;-65
2023/01/01 12:32:21;;;;;;;11.90;6.60;;;13.00;99.90;;;;;;4950733;29;20058;-65
2023/01/01 12:35:08;;;;;;;7.43;2.40;;;13.00;99.90;;;;;;4932458;28;20043;-64
2023/01/01 12:37:58;;;;;;;9.05;2.25;;;12.80;99.90;;;;;;4948330;28;20047;-66
2023/01/01 12:40:32;;;;;;;9.90;3.47;;;12.90;99.90;;;;;;4923508;28;20047;-64
2023/01/01 12:43:06;;;;;;;6.32;3.20;;;12.80;99.90;;;;;;4949820;28;20528;-66
2023/01/01 12:46:07;;;;;;;11.23;2.22;;;12.80;99.90;;;;;;4949677;29;20173;-65
2023/01/01 12:48:54;;;;;;;6.35;4.00;;;12.80;99.90;;;;;;4961873;28;20043;-64
2023/01/01 12:51:36;;;;;;;4.40;1.95;;;12.70;99.90;;;;;;4944240;29;20081;-64
2023/01/01 12:54:14;;;;;;;6.75;3.30;;;12.60;99.90;;;;;;4941715;29;20047;-65
2023/01/01 12:56:59;;;;;;;5.60;3.05;;;12.60;99.90;;;;;;4944341;29;20055;-65
2023/01/01 12:59:30;;;;;;;6.70;2.88;;;12.60;99.90;;;;;;4949412;28;20495;-66
2023/01/01 13:01:59;;;;;;;6.60;2.47;;;12.60;99.90;;;;;;4934667;29;20078;-65
2023/01/01 13:04:25;;;;;;;;;;;12.60;99.90;;;;;;4950744;29;20066;-65